Latest Weather Observations for Combienbar

IDV60801

Issued at 11:02 pm EDT Wednesday 28 January 2015 (issued every 30 minutes, with the page automatically refreshed every 10 minutes)

About weather observations | Map of weather stations | Latest weather observations for VIC | Other Formats
Station Details ID: 084143 Name: COMBIENBAR AWS Lat: -37.34 Lon: 149.02 Height: 640.0 m
Data from the previous 72 hours. | See also: Recent months at Combienbar
Date/Time
EDT
Temp
°C
App
Temp
°C
Dew
Point
Rel
Hum
%
Delta-T
°C
Wind Press
QNH
hPa
Press
MSL
hPa
Rain
since 9 am
mm
Dir
 
Spd
km/h
Gust
km/h
Spd
kts
Gust
kts
28/11:00pm 9.6 9.5 9.3 98 0.2 CALM 0 4 0 2 1019.4 1016.7 19.6
28/10:30pm 9.8 9.3 9.5 98 0.2 SSW 2 7 1 4 1019.8 1017.1 19.6
28/10:00pm 10.2 9.8 9.9 98 0.2 SSW 2 4 1 2 1019.9 1017.2 19.6
28/09:30pm 10.3 10.0 10.0 98 0.2 SSW 2 4 1 2 1019.8 1017.1 19.0
28/09:00pm 10.4 10.5 10.1 98 0.2 CALM 0 2 0 1 1019.6 1016.8 17.2
28/08:30pm 10.7 10.5 10.4 98 0.2 SW 2 7 1 4 1019.6 1016.8 17.2
28/08:00pm 10.9 11.1 10.6 98 0.2 CALM 0 2 0 1 1019.4 1016.7 17.2
28/07:30pm 10.7 10.8 10.2 97 0.3 CALM 0 2 0 1 1019.3 1016.6 17.0
28/07:00pm 10.9 10.7 10.4 97 0.3 S 2 4 1 2 1019.2 1016.5 15.6
28/06:30pm 11.3 11.2 10.8 97 0.3 SW 2 6 1 3 1019.0 1016.3 13.0
28/06:00pm 11.3 11.2 10.7 96 0.3 SW 2 9 1 5 1019.2 1016.5 12.6
28/05:30pm 12.2 12.2 11.3 94 0.5 SSW 2 4 1 2 1018.9 1016.2 10.6
28/05:00pm 11.9 11.2 11.3 96 0.3 SSW 6 11 3 6 1019.0 1016.3 10.6
28/04:30pm 12.4 12.6 11.9 97 0.3 SSW 2 6 1 3 1018.7 1016.0 10.6
28/04:00pm 12.6 12.8 12.0 96 0.3 SW 2 7 1 4 1018.6 1015.9 10.6
28/03:30pm 12.5 12.7 11.7 95 0.4 SW 2 6 1 3 1018.9 1016.2 10.4
28/03:00pm 14.7 15.7 14.4 98 0.2 SSW 2 6 1 3 1018.6 1015.9 9.2
28/02:30pm 12.3 11.8 10.9 91 0.8 WSW 4 9 2 5 1018.7 1016.0 8.8
28/02:00pm 13.1 13.0 12.2 94 0.5 SSW 4 9 2 5 1018.8 1016.1 6.0
28/01:30pm 14.3 14.9 13.0 92 0.7 SW 2 4 1 2 1019.0 1016.3 5.4
28/01:00pm 13.2 14.0 12.7 97 0.3 CALM 0 4 0 2 1019.1 1016.4 5.4
28/12:30pm 12.7 13.4 12.1 96 0.3 CALM 0 2 0 1 1019.1 1016.4 5.4
28/12:00pm 12.7 13.5 12.4 98 0.2 CALM 0 4 0 2 1019.3 1016.6 5.4
28/11:30am 12.0 12.5 11.7 98 0.2 CALM 0 0 0 0 1019.6 1016.8 5.4
28/11:00am 11.7 12.1 11.4 98 0.2 CALM 0 0 0 0 1019.4 1016.7 5.2
28/10:30am 11.6 11.6 11.3 98 0.2 SSW 2 6 1 3 1019.4 1016.7 4.2
28/10:00am 11.7 12.1 11.4 98 0.2 CALM 0 2 0 1 1019.2 1016.5 1.4
28/09:30am 11.7 12.1 11.2 97 0.3 CALM 0 0 0 0 1019.0 1016.3 0.0
28/09:00am 11.7 12.1 11.4 98 0.2 CALM 0 0 0 0 1018.8 1016.1 7.2
28/08:30am 11.1 11.3 10.6 97 0.3 CALM 0 0 0 0 1018.8 1016.1 7.0
28/08:00am 10.9 11.1 10.4 97 0.3 CALM 0 0 0 0 1018.6 1015.9 4.8
28/07:30am 10.9 11.1 10.4 97 0.3 CALM 0 0 0 0 1018.2 1015.4 3.8
28/07:00am 10.9 11.1 10.4 97 0.3 CALM 0 0 0 0 1017.9 1015.1 3.6
28/06:30am 10.7 10.0 10.2 97 0.3 W 4 7 2 4 1017.6 1014.9 3.6
28/06:00am 10.7 10.8 10.2 97 0.3 CALM 0 0 0 0 1017.5 1014.8 3.6
28/05:30am 10.9 11.0 10.3 96 0.3 CALM 0 0 0 0 1017.4 1014.7 3.0
28/05:00am 10.9 10.9 9.8 93 0.6 CALM 0 0 0 0 1017.1 1014.4 2.8
28/04:30am 10.9 11.0 10.0 94 0.5 CALM 0 0 0 0 1016.9 1014.2 2.8
28/04:00am 11.0 11.1 10.2 95 0.4 CALM 0 0 0 0 1017.1 1014.4 2.8
28/03:30am 11.4 11.3 9.3 87 1.1 CALM 0 6 0 3 1017.2 1014.5 2.8
28/03:00am 11.2 11.1 9.3 88 1.0 CALM 0 0 0 0 1017.4 1014.7 2.8
28/02:30am 11.2 11.3 10.3 94 0.5 CALM 0 0 0 0 1017.4 1014.7 2.8
28/02:00am 11.1 11.2 10.3 95 0.4 CALM 0 0 0 0 1017.7 1015.0 2.8
28/01:30am 11.3 11.5 10.7 96 0.3 CALM 0 0 0 0 1018.0 1015.2 2.8
28/01:00am 11.6 12.0 11.1 97 0.3 CALM 0 0 0 0 1018.1 1015.3 2.8
28/12:30am 11.5 11.8 10.9 96 0.3 CALM 0 0 0 0 1018.2 1015.4 2.8
28/12:00am 11.4 11.7 10.8 96 0.3 CALM 0 0 0 0 1018.2 1015.4 2.8
 
Date/Time
EDT
Temp
°C
App
Temp
°C
Dew
Point
Rel
Hum
%
Delta-T
°C
Wind Press
QNH
hPa
Press
MSL
hPa
Rain
since 9 am
mm
Dir
 
Spd
km/h
Gust
km/h
Spd
kts
Gust
kts
27/11:30pm 11.2 11.4 10.6 96 0.3 CALM 0 0 0 0 1018.2 1015.4 2.8
27/11:00pm 11.2 11.4 10.4 95 0.4 CALM 0 0 0 0 1017.9 1015.1 2.8
27/10:30pm 11.7 12.0 10.9 95 0.4 CALM 0 0 0 0 1018.1 1015.3 2.6
27/10:00pm 11.7 12.0 10.9 95 0.4 CALM 0 0 0 0 1018.1 1015.3 2.4
27/09:30pm 11.7 12.0 10.9 95 0.4 CALM 0 2 0 1 1017.9 1015.1 2.4
27/09:00pm 11.8 11.8 11.2 96 0.3 NNE 2 6 1 3 1017.5 1014.8 2.4
27/08:30pm 11.9 11.9 11.3 96 0.3 NNE 2 4 1 2 1017.4 1014.7 2.4
27/08:00pm 12.3 12.5 11.7 96 0.3 NNE 2 4 1 2 1017.2 1014.5 2.4
27/07:30pm 12.4 12.2 11.8 96 0.3 NNE 4 4 2 2 1017.0 1014.3 2.4
27/07:00pm 12.6 13.2 12.0 96 0.3 CALM 0 4 0 2 1016.7 1013.9 2.4
27/06:30pm 12.9 13.2 12.3 96 0.3 NNE 2 4 1 2 1016.5 1013.7 2.4
27/06:00pm 12.9 13.6 12.3 96 0.3 CALM 0 0 0 0 1016.3 1013.5 2.4
27/05:30pm 12.8 13.4 11.9 94 0.5 CALM 0 0 0 0 1016.5 1013.7 2.0
27/05:00pm 13.6 14.2 11.8 89 1.0 CALM 0 0 0 0 1016.6 1013.8 0.0
27/04:30pm 14.0 14.4 11.3 84 1.5 CALM 0 0 0 0 1016.4 1013.6 0.0
27/04:00pm 14.5 14.9 11.1 80 1.9 CALM 0 4 0 2 1016.3 1013.5 0.0
27/03:30pm 14.5 14.4 10.7 78 2.1 NE 2 4 1 2 1016.4 1013.6 0.0
27/03:00pm 14.5 14.6 11.5 82 1.7 NNE 2 7 1 4 1016.5 1013.7 0.0
27/02:30pm 14.4 14.0 11.2 81 1.8 NNE 4 6 2 3 1016.9 1014.2 0.0
27/02:00pm 14.9 15.3 11.3 79 2.0 CALM 0 2 0 1 1016.9 1014.2 0.0
27/01:30pm 15.0 15.5 11.6 80 1.9 CALM 0 4 0 2 1017.0 1014.3 0.0
27/01:00pm 14.5 14.4 10.7 78 2.1 NNE 2 7 1 4 1017.4 1014.7 0.0
27/12:30pm 14.1 13.9 10.3 78 2.0 NNE 2 4 1 2 1017.5 1014.8 0.0
27/12:00pm 14.1 13.9 10.5 79 1.9 NE 2 4 1 2 1017.7 1015.0 0.0
27/11:30am 14.1 13.9 10.3 78 2.0 NNE 2 6 1 3 1017.6 1014.9 0.0
27/11:00am 13.9 13.5 9.9 77 2.1 NNE 2 4 1 2 1017.6 1014.9 0.0
27/10:30am 13.4 13.1 10.0 80 1.8 NE 2 2 1 1 1017.6 1014.9 0.0
27/10:00am 13.8 13.5 10.0 78 2.0 NNE 2 4 1 2 1017.6 1014.9 0.0
27/09:30am 13.5 13.0 9.4 76 2.2 NNE 2 4 1 2 1017.5 1014.8 0.0
27/09:00am 13.3 12.7 9.0 75 2.2 NNE 2 7 1 4 1017.4 1014.7 0.0
27/08:30am 12.8 12.7 9.3 79 1.8 CALM 0 0 0 0 1017.4 1014.7 0.0
27/08:00am 11.6 11.3 8.6 82 1.5 CALM 0 0 0 0 1017.2 1014.5 0.0
27/07:30am 10.9 10.4 8.0 82 1.5 CALM 0 0 0 0 1017.2 1014.5 0.0
27/07:00am 10.8 10.3 7.9 82 1.5 CALM 0 0 0 0 1017.0 1014.3 0.0
27/06:30am 10.9 10.4 8.0 82 1.5 CALM 0 0 0 0 1016.8 1014.0 0.0
27/06:00am 10.6 9.6 7.5 81 1.5 NNE 2 4 1 2 1016.7 1013.9 0.0
27/05:30am 10.7 10.1 7.4 80 1.6 CALM 0 0 0 0 1016.5 1013.7 0.0
27/05:00am 10.8 10.3 7.9 82 1.5 CALM 0 0 0 0 1016.7 1013.9 0.0
27/04:30am 10.7 10.2 7.9 83 1.4 CALM 0 2 0 1 1016.6 1013.8 0.0
27/04:00am 10.5 10.0 7.7 83 1.4 CALM 0 0 0 0 1016.9 1014.2 0.0
27/03:30am 10.4 9.9 7.8 84 1.3 CALM 0 0 0 0 1017.1 1014.4 0.0
27/03:00am 10.4 9.8 7.6 83 1.4 CALM 0 2 0 1 1017.3 1014.6 0.0
27/02:30am 10.5 10.0 7.7 83 1.4 CALM 0 4 0 2 1017.4 1014.7 0.0
27/02:00am 10.5 10.0 7.7 83 1.4 CALM 0 0 0 0 1017.6 1014.9 0.0
27/01:30am 10.5 9.6 7.7 83 1.4 NNE 2 6 1 3 1017.9 1015.1 0.0
27/01:00am 10.4 9.8 7.6 83 1.4 CALM 0 4 0 2 1018.2 1015.4 0.0
27/12:30am 10.3 9.7 7.5 83 1.4 CALM 0 0 0 0 1018.5 1015.8 0.0
27/12:00am 10.4 9.8 7.5 82 1.4 CALM 0 0 0 0 1018.4 1015.7 0.0
 
Date/Time
EDT
Temp
°C
App
Temp
°C
Dew
Point
Rel
Hum
%
Delta-T
°C
Wind Press
QNH
hPa
Press
MSL
hPa
Rain
since 9 am
mm
Dir
 
Spd
km/h
Gust
km/h
Spd
kts
Gust
kts
26/11:30pm 10.3 9.7 7.5 83 1.4 CALM 0 2 0 1 1018.5 1015.8 0.0
26/11:00pm 10.2 9.2 7.4 83 1.4 NNE 2 4 1 2 1018.7 1016.0 0.0
26/10:30pm 10.1 9.5 7.5 84 1.3 CALM 0 0 0 0 1018.8 1016.1 0.0
26/10:00pm 10.2 9.7 7.8 85 1.2 CALM 0 0 0 0 1019.0 1016.3 0.0
26/09:30pm 10.0 9.4 7.4 84 1.3 CALM 0 0 0 0 1019.0 1016.3 0.0
26/09:00pm 10.0 9.4 7.6 85 1.2 CALM 0 0 0 0 1018.8 1016.1 0.0
26/08:30pm 10.3 9.9 8.1 86 1.1 CALM 0 0 0 0 1018.7 1016.0 0.0
26/08:00pm 10.6 9.7 7.7 82 1.4 ESE 2 4 1 2 1018.3 1015.6 0.0
26/07:30pm 10.7 10.2 7.8 82 1.5 CALM 0 0 0 0 1017.9 1015.1 0.0
26/07:00pm 10.8 10.3 8.0 83 1.4 CALM 0 0 0 0 1017.4 1014.7 0.0
26/06:30pm 10.9 10.6 8.5 85 1.2 CALM 0 0 0 0 1017.1 1014.4 0.0
26/06:00pm 11.0 10.6 8.2 83 1.4 CALM 0 4 0 2 1016.9 1014.2 0.0
26/05:30pm 11.2 10.9 8.6 84 1.3 CALM 0 0 0 0 1016.8 1014.0 0.0
26/05:00pm 11.6 11.3 8.6 82 1.5 CALM 0 4 0 2 1016.8 1014.0 0.0
26/04:30pm 12.1 11.9 8.9 81 1.7 CALM 0 2 0 1 1016.9 1014.2 0.0
26/04:00pm 12.2 12.0 9.0 81 1.7 CALM 0 4 0 2 1016.9 1014.2 0.0
26/03:30pm 12.9 12.8 9.4 79 1.8 CALM 0 4 0 2 1016.6 1013.8 0.0
26/03:00pm 14.4 14.3 9.6 73 2.6 CALM 0 2 0 1 1016.6 1013.8 0.0
26/02:30pm 13.9 13.7 8.9 72 2.6 CALM 0 0 0 0 1016.7 1013.9 0.0
26/02:00pm 13.5 13.0 7.9 69 2.9 CALM 0 0 0 0 1016.8 1014.0 0.0
26/01:30pm 13.7 13.2 7.7 67 3.1 CALM 0 0 0 0 1016.9 1014.2 0.0
26/01:00pm 14.1 13.3 6.7 61 3.7 CALM 0 4 0 2 1016.9 1014.2 0.0
26/12:30pm 14.0 13.5 8.0 67 3.1 CALM 0 2 0 1 1017.1 1014.4 0.0
26/12:00pm 13.9 13.5 8.1 68 3.0 CALM 0 2 0 1 1017.1 1014.4 0.0
26/11:30am 14.5 14.0 8.0 65 3.4 CALM 0 4 0 2 1017.0 1014.3 0.0
26/11:00am 13.8 13.3 7.8 67 3.1 CALM 0 6 0 3 1016.9 1014.2 0.0
26/10:30am 13.7 13.2 7.9 68 3.0 CALM 0 6 0 3 1016.8 1014.0 0.0
26/10:00am 12.4 11.5 6.2 66 3.0 CALM 0 4 0 2 1016.8 1014.0 0.0
26/09:30am 12.2 11.7 7.9 75 2.2 CALM 0 0 0 0 1016.7 1013.9 0.0
26/09:00am 11.0 10.2 6.4 73 2.2 CALM 0 0 0 0 1016.6 1013.8 1.0
26/08:30am 10.5 9.4 5.1 69 2.5 CALM 0 6 0 3 1016.3 1013.5 1.0
26/08:00am 9.8 7.8 4.6 70 2.4 SW 4 7 2 4 1015.8 1013.1 1.0
26/07:30am 9.4 7.8 4.4 71 2.3 SW 2 6 1 3 1015.7 1013.0 1.0
26/07:00am 9.2 7.9 4.0 70 2.4 CALM 0 6 0 3 1015.4 1012.6 1.0
26/06:30am 9.0 7.8 4.6 74 2.0 CALM 0 0 0 0 1015.2 1012.4 1.0
26/06:00am 9.0 7.7 4.2 72 2.2 CALM 0 0 0 0 1014.9 1012.1 1.0
26/05:30am 9.0 7.4 4.4 73 2.1 S 2 6 1 3 1014.3 1011.6 1.0
26/05:00am 9.1 6.7 4.1 71 2.3 SW 6 11 3 6 1014.0 1011.2 1.0
26/04:30am 8.9 6.6 4.7 75 1.9 SW 6 9 3 5 1013.7 1010.9 1.0
26/04:00am 9.1 7.1 4.5 73 2.1 SW 4 9 2 5 1013.6 1010.8 1.0
26/03:30am 9.3 7.1 5.1 75 2.0 SW 6 11 3 6 1013.4 1010.6 1.0
26/03:00am 9.3 7.2 5.7 78 1.7 SW 6 7 3 4 1013.3 1010.5 1.0
26/02:30am 9.4 7.5 6.5 82 1.4 SW 6 9 3 5 1013.3 1010.5 1.0
26/02:00am 9.5 8.1 7.1 85 1.2 SW 4 9 2 5 1013.2 1010.4 1.0
26/01:30am 9.9 8.6 7.5 85 1.2 SW 4 9 2 5 1013.3 1010.5 1.0
26/01:00am 9.9 9.1 8.2 89 0.9 SW 2 4 1 2 1013.3 1010.5 1.0
26/12:30am 9.8 9.1 8.4 91 0.7 SW 2 4 1 2 1013.5 1010.7 1.0
26/12:00am 9.8 9.1 8.7 93 0.6 SW 2 6 1 3 1013.6 1010.8 1.0
 
Date/Time
EDT
Temp
°C
App
Temp
°C
Dew
Point
Rel
Hum
%
Delta-T
°C
Wind Press
QNH
hPa
Press
MSL
hPa
Rain
since 9 am
mm
Dir
 
Spd
km/h
Gust
km/h
Spd
kts
Gust
kts
25/11:30pm 9.8 9.3 9.2 96 0.3 SW 2 6 1 3 1013.5 1010.7 1.0

Other Formats:

Comma delimited format used in spreadsheet applications
http://www.bom.gov.au/fwo/IDV60801/IDV60801.94914.axf

JavaScript Object Notation format (JSON) in row-major order
http://www.bom.gov.au/fwo/IDV60801/IDV60801.94914.json